Time;durP1;ratioP1;P1;durP2;ratioP2;P2;SDS_P1;SDS_P2;PMS_P1;PMS_P2;Temp;Humidity;BMP_temperature;BMP_pressure;BME280_temperature;BME280_humidity;BME280_pressure;Samples;Min_cycle;Max_cycle;Signal;HPM_P1;HPM_P2
2022/12/01 00:02:15;;;;;;;38.83;24.38;;;2.60;99.90;;;;;;5028714;28;20049;-52
2022/12/01 00:04:41;;;;;;;41.30;25.85;;;2.60;99.90;;;;;;5028656;28;20061;-53
2022/12/01 00:07:06;;;;;;;39.30;24.55;;;2.60;99.90;;;;;;5028729;28;20040;-53
2022/12/01 00:12:16;;;;;;;41.65;24.05;;;2.50;99.90;;;;;;5028642;28;20400;-49
2022/12/01 00:14:42;;;;;;;36.70;23.75;;;2.60;99.90;;;;;;5028475;28;20022;-49
2022/12/01 00:17:07;;;;;;;40.13;25.88;;;2.50;99.90;;;;;;5028490;28;20029;-48
2022/12/01 00:19:33;;;;;;;41.00;26.33;;;2.60;99.90;;;;;;5028490;28;20029;-51
2022/12/01 00:21:59;;;;;;;42.15;24.88;;;2.50;99.90;;;;;;5028224;28;20033;-51
2022/12/01 00:24:24;;;;;;;38.15;25.60;;;2.60;99.90;;;;;;5028434;28;20116;-49
2022/12/01 00:26:50;;;;;;;44.03;27.08;;;2.50;99.90;;;;;;5028309;28;20116;-51
2022/12/01 00:29:16;;;;;;;39.22;25.75;;;2.60;99.90;;;;;;5028348;28;20068;-49
2022/12/01 00:31:41;;;;;;;42.53;26.13;;;2.50;99.90;;;;;;5028379;28;20048;-51
2022/12/01 00:34:21;;;;;;;39.28;26.00;;;2.60;99.90;;;;;;5028172;28;20034;-53
2022/12/01 00:36:46;;;;;;;41.90;25.90;;;2.60;99.90;;;;;;5026889;28;20021;-51
2022/12/01 00:39:12;;;;;;;37.58;24.17;;;2.60;99.90;;;;;;5028147;28;20511;-50
2022/12/01 00:41:38;;;;;;;39.00;23.92;;;2.60;99.90;;;;;;5028130;28;20060;-52
2022/12/01 00:44:04;;;;;;;37.08;25.08;;;2.60;99.90;;;;;;5028025;28;20033;-54
2022/12/01 00:46:30;;;;;;;37.40;24.95;;;2.60;99.90;;;;;;5028230;28;20104;-50
2022/12/01 00:48:55;;;;;;;37.35;25.35;;;2.70;99.90;;;;;;5027952;28;20515;-49
2022/12/01 00:51:21;;;;;;;39.38;24.88;;;2.60;99.90;;;;;;5028020;28;20028;-50
2022/12/01 00:53:46;;;;;;;44.63;26.50;;;2.60;99.90;;;;;;5027758;28;20036;-51
2022/12/01 00:56:12;;;;;;;39.97;23.65;;;2.60;99.90;;;;;;5027982;28;20060;-51
2022/12/01 00:58:38;;;;;;;40.75;25.60;;;2.60;99.90;;;;;;5027936;28;20536;-52
2022/12/01 01:01:03;;;;;;;41.33;24.67;;;2.60;99.90;;;;;;5027706;28;20316;-50
2022/12/01 01:03:31;;;;;;;37.08;23.40;;;2.60;99.90;;;;;;5027230;28;20027;-48
2022/12/01 01:06:03;;;;;;;44.15;25.27;;;2.60;99.90;;;;;;5027702;28;20557;-50
2022/12/01 01:08:29;;;;;;;41.65;25.75;;;2.60;99.90;;;;;;5027842;28;20041;-49
2022/12/01 01:10:58;;;;;;;39.38;25.23;;;2.60;99.90;;;;;;5027402;28;20072;-51
2022/12/01 01:13:23;;;;;;;40.45;24.88;;;2.60;99.90;;;;;;5027822;28;20022;-50
2022/12/01 01:16:17;;;;;;;40.65;24.70;;;2.60;99.90;;;;;;5027568;28;20028;-51
2022/12/01 01:18:43;;;;;;;;;;;2.60;99.90;;;;;;5025937;28;20033;-49
2022/12/01 01:21:13;;;;;;;41.03;25.35;;;2.60;99.90;;;;;;5027711;28;19932;-51
2022/12/01 01:23:39;;;;;;;38.42;24.40;;;2.70;99.90;;;;;;5027447;28;20018;-52
2022/12/01 01:26:09;;;;;;;40.13;25.60;;;2.70;99.90;;;;;;5027507;28;20494;-51
2022/12/01 01:28:35;;;;;;;44.53;26.65;;;2.70;99.90;;;;;;5027435;28;20086;-50
2022/12/01 01:31:05;;;;;;;40.67;25.90;;;2.60;99.90;;;;;;5027552;28;20025;-51
2022/12/01 01:33:31;;;;;;;39.92;24.48;;;2.60;99.90;;;;;;5027514;28;20013;-52
2022/12/01 01:36:00;;;;;;;40.38;26.02;;;2.60;99.90;;;;;;5027186;28;20344;-48
2022/12/01 01:38:27;;;;;;;43.97;26.98;;;2.60;99.90;;;;;;5027430;28;20032;-51
2022/12/01 01:40:53;;;;;;;44.10;27.45;;;2.50;99.90;;;;;;5027239;28;20105;-51
2022/12/01 01:43:46;;;;;;;41.45;26.05;;;2.60;99.90;;;;;;5026030;28;20453;-49
2022/12/01 01:46:23;;;;;;;40.35;24.50;;;2.50;99.90;;;;;;5027457;28;20017;-50
2022/12/01 01:48:58;;;;;;;39.50;25.08;;;2.60;99.90;;;;;;5025801;28;20032;-48
2022/12/01 01:51:48;;;;;;;39.22;24.40;;;2.60;99.90;;;;;;5027361;28;20021;-48
2022/12/01 01:54:22;;;;;;;38.47;22.52;;;2.60;99.90;;;;;;5025953;28;20469;-51
2022/12/01 01:56:51;;;;;;;40.15;24.70;;;2.50;99.90;;;;;;5027281;28;20469;-53
2022/12/01 01:59:23;;;;;;;37.67;25.00;;;2.50;99.90;;;;;;5027140;28;20475;-52
2022/12/01 02:01:56;;;;;;;39.75;25.20;;;2.50;99.90;;;;;;5027008;28;20056;-48
2022/12/01 02:04:23;;;;;;;41.05;25.02;;;2.50;99.90;;;;;;5027118;28;20048;-50
2022/12/01 02:06:49;;;;;;;34.83;23.42;;;2.50;99.90;;;;;;5026929;28;20025;-50
2022/12/01 02:09:15;;;;;;;42.10;25.02;;;2.50;99.90;;;;;;5026847;28;20025;-50
2022/12/01 02:12:11;;;;;;;37.00;24.05;;;2.50;99.90;;;;;;5027022;28;20041;-54
2022/12/01 02:14:47;;;;;;;43.50;24.05;;;2.50;99.90;;;;;;5027207;28;20033;-49
2022/12/01 02:17:44;;;;;;;40.38;22.90;;;2.50;99.90;;;;;;5030346;28;20025;-52
2022/12/01 02:20:15;;;;;;;35.03;23.45;;;2.50;99.90;;;;;;5030245;28;20022;-50
2022/12/01 02:22:59;;;;;;;38.13;23.67;;;2.50;99.90;;;;;;5030238;28;20555;-50
2022/12/01 02:26:08;;;;;;;38.00;22.50;;;2.50;99.90;;;;;;5030306;28;20418;-48
2022/12/01 02:28:36;;;;;;;42.75;23.40;;;2.50;99.90;;;;;;5010121;28;21070;-49
2022/12/01 02:31:11;;;;;;;34.80;22.15;;;2.50;99.90;;;;;;5029940;28;20163;-48
2022/12/01 02:34:00;;;;;;;40.63;23.30;;;2.50;99.90;;;;;;5030116;28;20025;-48
2022/12/01 02:36:33;;;;;;;36.15;22.80;;;2.50;99.90;;;;;;5029972;28;20021;-50
2022/12/01 02:39:05;;;;;;;41.13;23.67;;;2.50;99.90;;;;;;5029988;28;20072;-49
2022/12/01 02:41:38;;;;;;;36.28;23.13;;;2.50;99.90;;;;;;5030125;28;20026;-49
2022/12/01 02:44:32;;;;;;;40.47;23.58;;;2.40;99.90;;;;;;5030013;28;20022;-52
2022/12/01 02:47:18;;;;;;;40.47;23.27;;;2.40;99.90;;;;;;5029642;28;20043;-52
2022/12/01 02:49:50;;;;;;;40.22;24.27;;;2.40;99.90;;;;;;5029992;28;20021;-50
2022/12/01 02:52:17;;;;;;;42.15;23.73;;;2.40;99.90;;;;;;5029863;28;20052;-51
2022/12/01 02:54:46;;;;;;;45.83;27.13;;;2.40;99.90;;;;;;5029958;28;20014;-48
2022/12/01 02:57:13;;;;;;;43.63;26.27;;;2.40;99.90;;;;;;5029948;28;20353;-50
2022/12/01 02:59:43;;;;;;;41.80;25.67;;;2.40;99.90;;;;;;5029755;28;20026;-49
2022/12/01 03:02:51;;;;;;;44.33;25.40;;;2.40;99.90;;;;;;5029568;28;20455;-53
2022/12/01 03:05:38;;;;;;;38.72;24.45;;;2.40;99.90;;;;;;5029656;28;20387;-49
2022/12/01 03:08:23;;;;;;;43.00;23.77;;;2.30;99.90;;;;;;5029336;28;20045;-50
2022/12/01 03:10:54;;;;;;;37.13;23.52;;;2.30;99.90;;;;;;5029223;28;20372;-50
2022/12/01 03:13:41;;;;;;;42.28;25.85;;;2.40;99.90;;;;;;5029510;28;20183;-50
2022/12/01 03:16:17;;;;;;;41.13;24.50;;;2.30;99.90;;;;;;5029197;28;20026;-51
2022/12/01 03:19:06;;;;;;;38.67;25.13;;;2.30;99.90;;;;;;5029444;28;20045;-49
2022/12/01 03:21:40;;;;;;;43.95;25.63;;;2.30;99.90;;;;;;5029537;28;20052;-49
2022/12/01 03:24:12;;;;;;;41.97;25.27;;;2.30;99.90;;;;;;5029251;28;20032;-51
2022/12/01 03:26:40;;;;;;;50.80;27.10;;;2.30;99.90;;;;;;5028819;28;20456;-50
2022/12/01 03:29:14;;;;;;;47.00;27.63;;;2.30;99.90;;;;;;5029024;28;20086;-49
2022/12/01 03:31:58;;;;;;;42.28;26.90;;;2.30;99.90;;;;;;5029220;28;20063;-50
2022/12/01 03:34:33;;;;;;;46.80;26.42;;;2.30;99.90;;;;;;5029330;28;20056;-49
2022/12/01 03:37:05;;;;;;;44.15;26.10;;;2.20;99.90;;;;;;5028952;28;20029;-50
2022/12/01 03:39:36;;;;;;;46.22;27.35;;;2.20;99.90;;;;;;5047323;28;20460;-49
2022/12/01 03:42:16;;;;;;;45.13;26.90;;;2.20;99.90;;;;;;5048786;28;20029;-48
2022/12/01 03:44:49;;;;;;;42.30;27.05;;;2.20;99.90;;;;;;5048905;28;20063;-50
2022/12/01 03:47:21;;;;;;;47.13;29.65;;;2.20;99.90;;;;;;5049017;28;20429;-51
2022/12/01 03:49:50;;;;;;;50.10;27.85;;;2.20;99.90;;;;;;5048658;28;20029;-52
2022/12/01 03:53:04;;;;;;;42.85;26.70;;;2.20;99.90;;;;;;5048796;28;20500;-51
2022/12/01 03:55:36;;;;;;;51.28;29.05;;;2.20;99.90;;;;;;5042480;28;20403;-54
2022/12/01 03:58:24;;;;;;;44.60;26.85;;;2.20;99.90;;;;;;5048571;28;20040;-47
2022/12/01 04:00:54;;;;;;;47.20;28.65;;;2.20;99.90;;;;;;5048610;28;20432;-49
2022/12/01 04:03:23;;;;;;;50.42;28.85;;;2.20;99.90;;;;;;5048725;28;20396;-53
2022/12/01 04:05:49;;;;;;;53.10;27.70;;;2.10;99.90;;;;;;5048438;28;20033;-54
2022/12/01 04:08:15;;;;;;;53.47;30.10;;;2.10;99.90;;;;;;5048539;28;20040;-48
2022/12/01 04:10:40;;;;;;;47.38;28.85;;;2.10;99.90;;;;;;5048389;28;20384;-52
2022/12/01 04:13:11;;;;;;;47.25;27.88;;;2.10;99.90;;;;;;5048256;28;20122;-51
2022/12/01 04:15:37;;;;;;;47.58;28.45;;;2.10;99.90;;;;;;5048541;28;20036;-51
2022/12/01 04:18:02;;;;;;;52.75;29.83;;;2.10;99.90;;;;;;5046997;28;20483;-49
2022/12/01 04:20:28;;;;;;;48.63;27.70;;;2.00;99.90;;;;;;5046976;28;20025;-49
2022/12/01 04:22:54;;;;;;;52.42;29.23;;;2.00;99.90;;;;;;5048215;28;20056;-49
2022/12/01 04:25:19;;;;;;;51.05;30.45;;;2.00;99.90;;;;;;5048347;28;20417;-50
2022/12/01 04:27:45;;;;;;;49.30;29.25;;;1.90;99.90;;;;;;5048340;28;20068;-51
2022/12/01 04:30:11;;;;;;;49.42;29.77;;;1.90;99.90;;;;;;5048206;28;20053;-51
2022/12/01 04:32:41;;;;;;;53.95;30.42;;;1.90;99.90;;;;;;5048098;28;20479;-49
2022/12/01 04:35:09;;;;;;;50.50;30.23;;;1.90;99.90;;;;;;5047896;28;20074;-49
2022/12/01 04:37:34;;;;;;;54.95;30.98;;;1.90;99.90;;;;;;5046848;28;20468;-51
2022/12/01 04:40:00;;;;;;;54.90;31.15;;;1.90;99.90;;;;;;5046936;28;20025;-48
2022/12/01 04:42:26;;;;;;;56.50;30.58;;;1.90;99.90;;;;;;5046629;28;20021;-52
2022/12/01 04:44:51;;;;;;;50.15;31.15;;;1.90;99.90;;;;;;5047989;28;20029;-50
2022/12/01 04:47:17;;;;;;;55.13;31.92;;;1.90;99.90;;;;;;5048042;28;20119;-51
2022/12/01 04:49:42;;;;;;;53.75;31.80;;;1.90;99.90;;;;;;5047913;28;20523;-51
2022/12/01 04:52:08;;;;;;;55.63;31.98;;;2.00;99.90;;;;;;5047633;28;20109;-50
2022/12/01 04:54:34;;;;;;;49.88;29.90;;;1.90;99.90;;;;;;5047986;28;20024;-47
2022/12/01 04:56:59;;;;;;;52.30;32.53;;;1.90;99.90;;;;;;5047717;28;20021;-49
2022/12/01 04:59:25;;;;;;;57.05;31.20;;;2.00;99.90;;;;;;5047832;28;20539;-52
2022/12/01 05:01:51;;;;;;;51.78;31.50;;;2.00;99.90;;;;;;5047513;28;20037;-50
2022/12/01 05:04:16;;;;;;;51.45;30.92;;;2.00;99.90;;;;;;5047731;28;20391;-52
2022/12/01 05:06:42;;;;;;;51.85;32.10;;;2.00;99.90;;;;;;5047866;28;20032;-52
2022/12/01 05:09:15;;;;;;;55.22;32.08;;;2.00;99.90;;;;;;5047540;28;20032;-50
2022/12/01 05:11:41;;;;;;;64.28;31.55;;;2.00;99.90;;;;;;5047794;28;20025;-49
2022/12/01 05:14:07;;;;;;;57.30;31.85;;;2.00;99.90;;;;;;5047336;28;20020;-49
2022/12/01 05:16:33;;;;;;;54.58;33.05;;;2.00;99.90;;;;;;5047631;28;20021;-52
2022/12/01 05:21:49;;;;;;;56.92;33.05;;;2.00;99.90;;;;;;5047643;28;20058;-49
2022/12/01 05:24:15;;;;;;;59.63;32.83;;;2.10;99.90;;;;;;5047477;28;20043;-52
2022/12/01 05:26:42;;;;;;;55.42;33.58;;;2.00;99.90;;;;;;5047514;28;20021;-51
2022/12/01 05:29:09;;;;;;;61.67;35.00;;;2.00;99.90;;;;;;5047227;28;20139;-50
2022/12/01 05:31:35;;;;;;;69.53;38.17;;;2.00;99.90;;;;;;5047313;28;20040;-52
2022/12/01 05:34:01;;;;;;;63.83;35.22;;;2.00;99.90;;;;;;5047037;28;20391;-50
2022/12/01 05:36:27;;;;;;;66.57;36.10;;;1.90;99.90;;;;;;5047470;28;20028;-54
2022/12/01 05:38:53;;;;;;;57.50;33.58;;;2.00;99.90;;;;;;5047010;28;20017;-52
2022/12/01 05:41:19;;;;;;;67.22;35.97;;;2.00;99.90;;;;;;5047391;28;20032;-50
2022/12/01 05:43:44;;;;;;;68.50;35.83;;;2.00;99.90;;;;;;5047087;28;20480;-52
2022/12/01 05:46:11;;;;;;;66.70;36.55;;;2.00;99.90;;;;;;5047278;28;20033;-51
2022/12/01 05:48:37;;;;;;;62.45;35.33;;;2.00;99.90;;;;;;5047243;28;20031;-51
2022/12/01 05:51:11;;;;;;;64.68;36.05;;;2.00;99.90;;;;;;5049419;28;20104;-49
2022/12/01 05:53:37;;;;;;;63.90;35.50;;;1.90;99.90;;;;;;5049283;28;20025;-51
2022/12/01 05:56:03;;;;;;;65.15;36.55;;;1.90;99.90;;;;;;5050451;28;20025;-49
2022/12/01 05:58:29;;;;;;;67.53;36.22;;;2.00;99.90;;;;;;5050573;28;20025;-51
2022/12/01 06:00:55;;;;;;;69.68;38.53;;;1.90;99.90;;;;;;5050361;28;20486;-52
2022/12/01 06:03:20;;;;;;;69.75;36.15;;;2.00;99.90;;;;;;5050446;28;20045;-48
2022/12/01 06:05:46;;;;;;;64.15;34.72;;;2.00;99.90;;;;;;5050359;28;20029;-52
2022/12/01 06:08:11;;;;;;;69.13;36.83;;;2.00;99.90;;;;;;5050394;28;20147;-49
2022/12/01 06:10:37;;;;;;;71.68;37.45;;;2.00;99.90;;;;;;5050277;28;20058;-52
2022/12/01 06:13:03;;;;;;;65.10;36.35;;;2.00;99.90;;;;;;5048430;28;20029;-50
2022/12/01 06:15:28;;;;;;;66.05;38.30;;;2.00;99.90;;;;;;5050479;28;20028;-51
2022/12/01 06:17:57;;;;;;;66.45;38.53;;;2.00;99.90;;;;;;5049840;28;20025;-50
2022/12/01 06:20:23;;;;;;;63.92;36.92;;;2.10;99.90;;;;;;5050018;28;20017;-51
2022/12/01 06:22:48;;;;;;;76.75;40.75;;;2.10;99.90;;;;;;5050026;28;20048;-54
2022/12/01 06:25:14;;;;;;;76.07;38.70;;;2.10;99.90;;;;;;5050027;28;20100;-49
2022/12/01 06:27:39;;;;;;;78.38;40.80;;;2.10;99.90;;;;;;5050059;28;20449;-50
2022/12/01 06:30:06;;;;;;;78.32;40.05;;;2.20;99.90;;;;;;5049668;28;20033;-50
2022/12/01 06:32:32;;;;;;;70.57;39.75;;;2.20;99.90;;;;;;5049825;28;20471;-50
2022/12/01 06:34:57;;;;;;;66.95;38.60;;;2.20;99.90;;;;;;5049768;28;20069;-50
2022/12/01 06:37:23;;;;;;;69.35;37.42;;;2.20;99.90;;;;;;5049893;28;20021;-51
2022/12/01 06:39:49;;;;;;;81.70;42.78;;;2.20;99.90;;;;;;5049576;28;20086;-50
2022/12/01 06:42:14;;;;;;;68.60;39.22;;;2.20;99.90;;;;;;5049742;28;20120;-49
2022/12/01 06:44:40;;;;;;;88.55;42.35;;;2.20;99.90;;;;;;5049784;28;20036;-50
2022/12/01 06:47:07;;;;;;;68.63;37.90;;;2.20;99.90;;;;;;5049583;28;20052;-48
2022/12/01 06:49:32;;;;;;;73.10;35.60;;;2.30;99.90;;;;;;5049743;28;20009;-50
2022/12/01 06:51:58;;;;;;;76.90;40.42;;;2.30;99.90;;;;;;5049117;28;20387;-47
2022/12/01 06:54:24;;;;;;;100.07;53.42;;;2.30;99.90;;;;;;5049349;28;20384;-50
2022/12/01 06:56:49;;;;;;;79.30;42.67;;;2.30;99.90;;;;;;5049312;28;20328;-50
2022/12/01 06:59:15;;;;;;;69.85;37.50;;;2.30;99.90;;;;;;5049679;28;20035;-50
2022/12/01 07:01:41;;;;;;;72.13;40.47;;;2.20;99.90;;;;;;5048598;28;20021;-48
2022/12/01 07:04:06;;;;;;;70.20;41.25;;;2.20;99.90;;;;;;5048153;28;20028;-51
2022/12/01 07:06:32;;;;;;;68.63;38.10;;;2.20;99.90;;;;;;5049405;28;20395;-53
2022/12/01 07:08:57;;;;;;;74.35;41.17;;;2.20;99.90;;;;;;5049094;28;20025;-52
2022/12/01 07:11:23;;;;;;;70.05;39.03;;;2.20;99.90;;;;;;5049296;28;20030;-47
2022/12/01 07:13:54;;;;;;;73.20;39.65;;;2.20;99.90;;;;;;5049106;28;20031;-49
2022/12/01 07:16:21;;;;;;;75.57;39.08;;;2.30;99.90;;;;;;5049136;28;20036;-49
2022/12/01 07:18:46;;;;;;;76.43;39.08;;;2.20;99.90;;;;;;5049039;28;20033;-49
2022/12/01 07:21:13;;;;;;;75.78;38.45;;;2.20;99.90;;;;;;5048042;28;20021;-49
2022/12/01 07:23:39;;;;;;;78.35;41.47;;;2.20;99.90;;;;;;5049281;28;20089;-48
2022/12/01 07:26:11;;;;;;;82.95;41.75;;;2.10;99.90;;;;;;5049048;28;20116;-49
2022/12/01 07:28:37;;;;;;;70.93;38.72;;;2.10;99.90;;;;;;5049193;28;20013;-48
2022/12/01 07:31:06;;;;;;;82.68;40.85;;;2.10;99.90;;;;;;5049128;28;20078;-47
2022/12/01 07:33:32;;;;;;;78.05;38.80;;;2.10;99.90;;;;;;5049015;28;20104;-48
2022/12/01 07:35:58;;;;;;;83.15;41.65;;;2.10;99.90;;;;;;5048795;28;20104;-48
2022/12/01 07:38:26;;;;;;;78.85;41.78;;;2.20;99.90;;;;;;5048950;28;20049;-49
2022/12/01 07:40:51;;;;;;;84.32;39.88;;;2.20;99.90;;;;;;5048951;28;20051;-48
2022/12/01 07:43:17;;;;;;;70.75;39.35;;;2.30;99.90;;;;;;5049008;28;20061;-50
2022/12/01 07:45:43;;;;;;;76.57;40.85;;;2.30;99.90;;;;;;5047650;28;20025;-50
2022/12/01 07:48:08;;;;;;;73.53;39.20;;;2.30;99.90;;;;;;5048940;28;20021;-47
2022/12/01 07:50:34;;;;;;;77.90;40.28;;;2.30;99.90;;;;;;5048815;28;20033;-48
2022/12/01 07:52:59;;;;;;;77.05;42.72;;;2.40;99.90;;;;;;5048470;28;20479;-47
2022/12/01 07:55:25;;;;;;;74.43;39.25;;;2.40;99.90;;;;;;5048796;28;20048;-49
2022/12/01 07:57:52;;;;;;;86.80;44.80;;;2.40;99.90;;;;;;5048694;28;20067;-47
2022/12/01 08:00:18;;;;;;;89.57;46.33;;;2.40;99.90;;;;;;5048646;28;20104;-48
2022/12/01 08:02:43;;;;;;;92.78;50.83;;;2.40;99.90;;;;;;5048661;28;20116;-48
2022/12/01 08:05:09;;;;;;;80.53;43.42;;;2.40;99.90;;;;;;5048513;28;20029;-48
2022/12/01 08:07:34;;;;;;;78.85;43.13;;;2.40;99.90;;;;;;5048538;28;20029;-50
2022/12/01 08:10:00;;;;;;;82.22;45.38;;;2.40;99.90;;;;;;5048268;28;20040;-49
2022/12/01 08:12:26;;;;;;;82.50;44.25;;;2.50;99.90;;;;;;5048392;28;20033;-49
2022/12/01 08:14:51;;;;;;;84.70;46.20;;;2.60;99.90;;;;;;5048287;28;20069;-49
2022/12/01 08:17:17;;;;;;;84.63;43.75;;;2.60;99.90;;;;;;5047148;28;20021;-47
2022/12/01 08:19:43;;;;;;;83.85;41.10;;;2.60;99.90;;;;;;5048353;28;20025;-51
2022/12/01 08:22:08;;;;;;;80.43;41.55;;;2.70;99.90;;;;;;5046488;28;20376;-51
2022/12/01 08:24:34;;;;;;;79.45;40.95;;;2.70;99.90;;;;;;5048240;28;20067;-51
2022/12/01 08:26:59;;;;;;;77.35;42.75;;;2.70;99.90;;;;;;5048115;28;20415;-50
2022/12/01 08:29:25;;;;;;;104.60;61.28;;;2.70;99.90;;;;;;5048355;28;20487;-50
2022/12/01 08:31:51;;;;;;;163.80;107.22;;;2.70;99.90;;;;;;5047956;28;20067;-48
2022/12/01 08:34:17;;;;;;;89.15;46.78;;;2.70;99.90;;;;;;5048130;28;20021;-49
2022/12/01 08:36:43;;;;;;;74.22;41.72;;;2.70;99.90;;;;;;5048163;28;20028;-48
2022/12/01 08:39:08;;;;;;;78.57;41.05;;;2.70;99.90;;;;;;5048037;28;20018;-51
2022/12/01 08:41:34;;;;;;;83.30;44.58;;;2.80;99.90;;;;;;5048006;28;20080;-49
2022/12/01 08:44:00;;;;;;;77.50;40.10;;;2.80;99.90;;;;;;5047886;28;20047;-49
2022/12/01 08:46:27;;;;;;;84.78;42.83;;;2.70;99.90;;;;;;5047909;28;20029;-49
2022/12/01 08:48:53;;;;;;;82.13;42.05;;;2.80;99.90;;;;;;5047815;28;20021;-48
2022/12/01 08:51:19;;;;;;;75.70;39.75;;;2.80;99.90;;;;;;5047758;28;20383;-50
2022/12/01 08:53:47;;;;;;;82.63;42.17;;;2.90;99.90;;;;;;5047853;28;20173;-49
2022/12/01 08:56:19;;;;;;;76.78;38.70;;;3.00;99.90;;;;;;5047735;28;20029;-50
2022/12/01 08:58:45;;;;;;;86.15;41.67;;;3.10;99.90;;;;;;5047976;28;20025;-48
2022/12/01 09:01:13;;;;;;;77.32;39.85;;;3.00;99.90;;;;;;5047762;28;20032;-50
2022/12/01 09:03:39;;;;;;;79.20;39.80;;;3.20;99.90;;;;;;5047688;28;20021;-50
2022/12/01 09:06:07;;;;;;;79.32;42.13;;;3.20;99.90;;;;;;5047372;28;20033;-51
2022/12/01 09:08:34;;;;;;;74.57;40.13;;;3.20;99.90;;;;;;5047765;28;20020;-54
2022/12/01 09:11:05;;;;;;;90.90;43.40;;;3.10;99.90;;;;;;5047344;28;20056;-48
2022/12/01 09:13:35;;;;;;;85.63;42.88;;;3.00;99.90;;;;;;5047542;28;20033;-49
2022/12/01 09:16:10;;;;;;;74.55;40.25;;;3.00;99.90;;;;;;5047449;28;20538;-50
2022/12/01 09:18:36;;;;;;;75.72;39.10;;;2.90;99.90;;;;;;5047324;28;20051;-49
2022/12/01 09:21:22;;;;;;;80.97;38.17;;;2.90;99.90;;;;;;5047512;28;20103;-51
2022/12/01 09:23:48;;;;;;;72.15;38.47;;;2.90;99.90;;;;;;5047388;28;20017;-52
2022/12/01 09:26:17;;;;;;;80.78;41.08;;;2.90;99.90;;;;;;5046728;28;20032;-50
2022/12/01 09:28:43;;;;;;;81.03;43.65;;;2.90;99.90;;;;;;5047231;28;20017;-48
2022/12/01 09:31:11;;;;;;;82.95;42.05;;;3.00;99.90;;;;;;5047081;28;20027;-50
2022/12/01 09:33:37;;;;;;;74.43;38.55;;;3.10;99.90;;;;;;5047489;28;20025;-49
2022/12/01 09:36:04;;;;;;;70.75;39.00;;;3.10;99.90;;;;;;5047187;28;20100;-53
2022/12/01 09:38:32;;;;;;;83.30;44.63;;;3.10;99.90;;;;;;5047381;28;20017;-49
2022/12/01 09:41:19;;;;;;;75.28;40.80;;;3.10;99.90;;;;;;5047105;28;20025;-50
2022/12/01 09:44:00;;;;;;;76.45;40.28;;;3.10;99.90;;;;;;5047119;28;20476;-48
2022/12/01 09:46:34;;;;;;;83.35;40.90;;;3.20;99.90;;;;;;5045850;28;20539;-50
2022/12/01 09:49:02;;;;;;;80.63;38.72;;;3.10;99.90;;;;;;5047031;28;20108;-47
2022/12/01 09:51:29;;;;;;;72.63;38.33;;;3.10;99.90;;;;;;5047055;28;20033;-49
2022/12/01 09:53:58;;;;;;;79.05;37.90;;;3.10;99.90;;;;;;5047382;28;20017;-51
2022/12/01 09:56:33;;;;;;;78.45;39.92;;;3.20;99.90;;;;;;5047058;28;20036;-51
2022/12/01 09:59:01;;;;;;;77.10;39.38;;;3.30;99.90;;;;;;5046998;28;20073;-50
2022/12/01 10:01:32;;;;;;;77.35;37.63;;;3.30;99.90;;;;;;5046915;28;20454;-53
2022/12/01 10:04:05;;;;;;;71.15;36.70;;;3.40;99.90;;;;;;5046814;28;20028;-53
2022/12/01 10:06:54;;;;;;;76.00;39.40;;;3.70;99.90;;;;;;5047049;28;20315;-48
2022/12/01 10:09:29;;;;;;;71.50;37.58;;;3.70;99.90;;;;;;5046803;28;20037;-52
2022/12/01 10:12:03;;;;;;;77.47;37.95;;;3.80;99.90;;;;;;5046897;28;20140;-50
2022/12/01 10:14:31;;;;;;;81.43;42.10;;;3.60;99.90;;;;;;5046918;28;20124;-50
2022/12/01 10:17:11;;;;;;;78.07;39.47;;;3.50;99.90;;;;;;5046670;28;20436;-51
2022/12/01 10:20:09;;;;;;;79.43;41.47;;;3.50;99.90;;;;;;5045677;28;20021;-50
2022/12/01 10:22:53;;;;;;;73.95;41.65;;;3.40;99.90;;;;;;5017923;28;20090;-52
2022/12/01 10:25:23;;;;;;;83.32;40.97;;;3.50;99.90;;;;;;5046989;28;20108;-49
2022/12/01 10:28:13;;;;;;;75.50;37.40;;;3.40;99.90;;;;;;5046727;28;20048;-48
2022/12/01 10:30:48;;;;;;;76.88;39.45;;;3.30;99.90;;;;;;5046642;28;20022;-50
2022/12/01 10:33:30;;;;;;;87.72;41.42;;;3.40;99.90;;;;;;5046574;28;20100;-49
2022/12/01 10:35:56;;;;;;;88.00;41.13;;;3.50;99.90;;;;;;5046168;28;20021;-51
2022/12/01 10:38:31;;;;;;;79.00;39.22;;;3.50;99.90;;;;;;5049377;28;20017;-48
2022/12/01 10:40:59;;;;;;;72.45;38.95;;;3.60;99.90;;;;;;5049706;28;20076;-51
2022/12/01 10:43:35;;;;;;;84.72;41.53;;;3.50;99.90;;;;;;5049945;28;20028;-53
2022/12/01 10:46:17;;;;;;;79.00;39.92;;;3.60;99.90;;;;;;5049695;28;20021;-48
2022/12/01 10:49:05;;;;;;;77.72;39.70;;;3.70;99.90;;;;;;5049725;28;20025;-51
2022/12/01 10:51:49;;;;;;;79.55;43.20;;;3.70;99.90;;;;;;5049790;28;20029;-48
2022/12/01 10:54:15;;;;;;;;;;;3.80;99.90;;;;;;5048744;28;20484;-51
2022/12/01 10:56:44;;;;;;;73.93;39.72;;;3.70;99.90;;;;;;5049587;28;19991;-51
2022/12/01 10:59:27;;;;;;;83.57;40.08;;;3.60;99.90;;;;;;5049631;28;20247;-52
2022/12/01 11:01:53;;;;;;;82.57;40.05;;;3.70;99.90;;;;;;5049506;28;20404;-50
2022/12/01 11:04:57;;;;;;;86.75;43.88;;;3.50;99.90;;;;;;5049739;28;20104;-49
2022/12/01 11:07:31;;;;;;;90.05;40.67;;;3.60;99.90;;;;;;5048996;28;20390;-48
2022/12/01 11:10:19;;;;;;;76.97;39.75;;;3.50;99.90;;;;;;5049169;28;20033;-50
2022/12/01 11:13:02;;;;;;;89.25;40.72;;;3.50;99.90;;;;;;5049426;28;20029;-50
2022/12/01 11:15:32;;;;;;;74.45;39.75;;;3.50;99.90;;;;;;5049401;28;20026;-48
2022/12/01 11:18:03;;;;;;;66.68;36.10;;;3.70;99.90;;;;;;5049287;28;20021;-50
2022/12/01 11:20:37;;;;;;;70.28;36.45;;;3.80;99.90;;;;;;5049349;28;20070;-48
2022/12/01 11:23:23;;;;;;;74.93;38.67;;;3.90;99.90;;;;;;5049233;28;20021;-48
2022/12/01 11:25:57;;;;;;;67.85;36.17;;;4.00;99.90;;;;;;5049002;28;20051;-48
2022/12/01 11:28:23;;;;;;;67.65;35.70;;;4.10;99.90;;;;;;5049094;28;20360;-48
2022/12/01 11:31:04;;;;;;;64.38;33.22;;;4.00;99.90;;;;;;5049179;28;20382;-50
2022/12/01 11:33:44;;;;;;;63.95;36.03;;;4.00;99.90;;;;;;5049107;28;20154;-50
2022/12/01 11:36:17;;;;;;;62.15;32.80;;;4.00;99.90;;;;;;5048914;28;20014;-51
2022/12/01 11:38:43;;;;;;;;;;;4.00;99.90;;;;;;5049574;28;20062;-49
2022/12/01 11:41:31;;;;;;;62.95;32.92;;;4.10;99.90;;;;;;5048819;28;19905;-52
2022/12/01 11:44:00;;;;;;;58.97;31.17;;;4.20;99.90;;;;;;5048788;28;20112;-50
2022/12/01 11:46:35;;;;;;;70.20;34.92;;;4.20;99.90;;;;;;5048877;28;20375;-53
2022/12/01 11:49:01;;;;;;;68.00;37.30;;;4.00;99.90;;;;;;5048373;28;20029;-48
2022/12/01 11:51:36;;;;;;;66.60;36.25;;;4.10;99.90;;;;;;5048725;28;20118;-49
2022/12/01 11:54:11;;;;;;;79.35;35.08;;;4.00;99.90;;;;;;5048708;28;20062;-48
2022/12/01 11:56:36;;;;;;;59.22;32.72;;;4.10;99.90;;;;;;5048811;28;20021;-48
2022/12/01 11:59:17;;;;;;;59.13;31.92;;;4.20;99.90;;;;;;5048548;28;20024;-48
2022/12/01 12:01:52;;;;;;;56.25;29.90;;;4.20;99.90;;;;;;5048679;28;20053;-49
2022/12/01 12:04:39;;;;;;;72.25;32.65;;;4.20;99.90;;;;;;5048723;28;20033;-50
2022/12/01 12:07:13;;;;;;;57.95;29.67;;;4.10;99.90;;;;;;5048612;28;20304;-52
2022/12/01 12:09:57;;;;;;;61.05;31.48;;;4.20;99.90;;;;;;5048522;28;20424;-50
2022/12/01 12:12:28;;;;;;;;;;;4.10;99.90;;;;;;5048921;28;20029;-47
2022/12/01 12:14:54;;;;;;;60.70;31.65;;;4.20;99.90;;;;;;5048413;28;20378;-49
2022/12/01 12:17:46;;;;;;;54.35;31.58;;;4.00;99.90;;;;;;5048555;28;20021;-47
2022/12/01 12:20:45;;;;;;;57.80;32.03;;;4.00;99.90;;;;;;5048488;28;20024;-51
2022/12/01 12:23:20;;;;;;;71.07;31.50;;;4.00;99.90;;;;;;5047080;27;20025;-48
2022/12/01 12:25:50;;;;;;;62.10;33.13;;;4.00;99.90;;;;;;5048187;28;20057;-48
2022/12/01 12:28:22;;;;;;;63.60;30.52;;;4.00;99.90;;;;;;5048301;28;20021;-49
2022/12/01 12:31:06;;;;;;;61.33;33.22;;;4.20;99.90;;;;;;5048270;28;20369;-50
2022/12/01 12:34:07;;;;;;;60.15;32.80;;;4.20;99.90;;;;;;5048055;28;20044;-52
2022/12/01 12:36:54;;;;;;;68.90;32.25;;;4.30;99.90;;;;;;4993660;28;20030;-50
2022/12/01 12:39:47;;;;;;;68.40;34.83;;;4.30;99.90;;;;;;5047987;28;20025;-48
2022/12/01 12:42:41;;;;;;;65.28;36.15;;;4.50;99.90;;;;;;5047888;28;20033;-48
2022/12/01 12:45:31;;;;;;;60.78;33.28;;;4.50;99.90;;;;;;5021804;28;20045;-50
2022/12/01 12:48:12;;;;;;;70.03;37.38;;;4.40;99.90;;;;;;5047838;28;20029;-51
2022/12/01 12:50:43;;;;;;;70.40;37.72;;;4.40;99.90;;;;;;5048004;28;20416;-48
2022/12/01 12:53:32;;;;;;;69.18;36.10;;;4.30;99.90;;;;;;5047658;28;20494;-53
2022/12/01 12:56:02;;;;;;;61.00;34.50;;;4.40;99.90;;;;;;5047795;28;20025;-49
2022/12/01 12:58:38;;;;;;;59.25;33.25;;;4.40;99.90;;;;;;5047811;28;20032;-49
2022/12/01 13:01:12;;;;;;;62.38;31.40;;;4.40;99.90;;;;;;5046687;28;20143;-49
2022/12/01 13:03:47;;;;;;;;;;;4.40;99.90;;;;;;5048295;28;20375;-48
2022/12/01 13:06:19;;;;;;;58.42;29.77;;;4.50;99.90;;;;;;5047731;28;19904;-50